LDLO/LSZ METAR and TAF weather

Enter ICAO airport designator
Station Type Date Time Source
LDLO METAR 2020/07/05 18:00 UTC NOAA

LDLO 051800Z 33009KT CAVOK 26/17 Q1012


Station Type Date Time Source
LDLO Decoded METAR 2020/07/05 18:00 UTC NOAA

Losinj Island, Croatia (LDLO) 44-33-57N 014-23-35E
Jul 05, 2020 - 02:00 PM EDT / 2020.07.05 1800 UTC
Wind: from the NNW (330 degrees) at 10 MPH (9 KT):0
Visibility: greater than 7 mile(s):0
Temperature: 78 F (26 C)
Dew Point: 62 F (17 C)
Relative Humidity: 57%
Pressure (altimeter): 29.88 in. Hg (1012 hPa)
ob: LDLO 051800Z 33009KT CAVOK 26/17 Q1012
cycle: 18

Station Type Date Time Source
LDLO TAF 2020/07/05 19:03 UTC NOAA

TAF
AMD TAF
AMD LDLO 051900Z 0519/0612 CNL

Example: see airport list